sensor_id;sensor_type;location;lat;lon;timestamp;pressure;altitude;pressure_sealevel;temperature;humidity
18988;BME280;5494;51.796;10.952;2024-02-15T00:01:12;99062.50;;;10.88;100.00
18988;BME280;5494;51.796;10.952;2024-02-15T00:03:40;99068.41;;;10.92;100.00
18988;BME280;5494;51.796;10.952;2024-02-15T00:06:10;99068.69;;;10.86;100.00
18988;BME280;5494;51.796;10.952;2024-02-15T00:08:38;99069.72;;;10.83;100.00
18988;BME280;5494;51.796;10.952;2024-02-15T00:11:06;99073.22;;;10.82;100.00
18988;BME280;5494;51.796;10.952;2024-02-15T00:13:36;99070.56;;;10.84;100.00
18988;BME280;5494;51.796;10.952;2024-02-15T00:16:04;99071.94;;;10.91;100.00
18988;BME280;5494;51.796;10.952;2024-02-15T00:18:32;99065.81;;;10.92;100.00
18988;BME280;5494;51.796;10.952;2024-02-15T00:21:01;99071.09;;;10.90;100.00
18988;BME280;5494;51.796;10.952;2024-02-15T00:23:30;99068.56;;;10.89;100.00
18988;BME280;5494;51.796;10.952;2024-02-15T00:25:59;99065.88;;;10.90;100.00
18988;BME280;5494;51.796;10.952;2024-02-15T00:28:27;99060.00;;;10.87;100.00
18988;BME280;5494;51.796;10.952;2024-02-15T00:30:56;99051.81;;;10.94;100.00
18988;BME280;5494;51.796;10.952;2024-02-15T00:33:24;99064.19;;;10.89;100.00
18988;BME280;5494;51.796;10.952;2024-02-15T00:35:52;99065.97;;;10.89;100.00
18988;BME280;5494;51.796;10.952;2024-02-15T00:38:20;99060.75;;;10.89;100.00
18988;BME280;5494;51.796;10.952;2024-02-15T00:40:50;99064.66;;;10.80;100.00
18988;BME280;5494;51.796;10.952;2024-02-15T00:43:18;99081.34;;;10.76;100.00
18988;BME280;5494;51.796;10.952;2024-02-15T00:45:46;99081.16;;;10.79;100.00
18988;BME280;5494;51.796;10.952;2024-02-15T00:48:14;99085.38;;;10.82;100.00
18988;BME280;5494;51.796;10.952;2024-02-15T00:50:43;99072.69;;;10.76;100.00
18988;BME280;5494;51.796;10.952;2024-02-15T00:53:11;99070.53;;;10.66;100.00
18988;BME280;5494;51.796;10.952;2024-02-15T00:55:39;99083.41;;;10.70;100.00
18988;BME280;5494;51.796;10.952;2024-02-15T00:58:08;99077.91;;;10.76;100.00
18988;BME280;5494;51.796;10.952;2024-02-15T01:00:36;99075.75;;;10.66;100.00
18988;BME280;5494;51.796;10.952;2024-02-15T01:03:05;99083.78;;;10.62;100.00
18988;BME280;5494;51.796;10.952;2024-02-15T01:05:33;99078.72;;;10.59;100.00
18988;BME280;5494;51.796;10.952;2024-02-15T01:08:01;99083.31;;;10.54;100.00
18988;BME280;5494;51.796;10.952;2024-02-15T01:10:29;99080.72;;;10.54;100.00
18988;BME280;5494;51.796;10.952;2024-02-15T01:12:57;99089.22;;;10.57;100.00
18988;BME280;5494;51.796;10.952;2024-02-15T01:15:27;99081.31;;;10.59;100.00
18988;BME280;5494;51.796;10.952;2024-02-15T01:17:55;99074.38;;;10.59;100.00
18988;BME280;5494;51.796;10.952;2024-02-15T01:20:23;99074.28;;;10.61;100.00
18988;BME280;5494;51.796;10.952;2024-02-15T01:22:51;99073.06;;;10.68;100.00
18988;BME280;5494;51.796;10.952;2024-02-15T01:25:19;99073.16;;;10.66;100.00
18988;BME280;5494;51.796;10.952;2024-02-15T01:27:47;99074.69;;;10.71;100.00
18988;BME280;5494;51.796;10.952;2024-02-15T01:30:16;99077.06;;;10.75;100.00
18988;BME280;5494;51.796;10.952;2024-02-15T01:32:45;99060.22;;;10.82;100.00
18988;BME280;5494;51.796;10.952;2024-02-15T01:35:13;99069.72;;;10.83;100.00
18988;BME280;5494;51.796;10.952;2024-02-15T01:37:41;99060.53;;;10.76;100.00
18988;BME280;5494;51.796;10.952;2024-02-15T01:40:10;99072.38;;;10.82;100.00
18988;BME280;5494;51.796;10.952;2024-02-15T01:42:39;99072.25;;;10.85;100.00
18988;BME280;5494;51.796;10.952;2024-02-15T01:45:08;99077.88;;;10.93;100.00
18988;BME280;5494;51.796;10.952;2024-02-15T01:47:39;99086.16;;;10.84;100.00
18988;BME280;5494;51.796;10.952;2024-02-15T01:50:11;99082.25;;;10.75;100.00
18988;BME280;5494;51.796;10.952;2024-02-15T01:52:43;99088.44;;;10.73;100.00
18988;BME280;5494;51.796;10.952;2024-02-15T01:55:16;99087.81;;;10.68;100.00
18988;BME280;5494;51.796;10.952;2024-02-15T01:57:45;99095.13;;;10.78;100.00
18988;BME280;5494;51.796;10.952;2024-02-15T02:00:17;99088.75;;;10.66;100.00
18988;BME280;5494;51.796;10.952;2024-02-15T02:02:46;99091.28;;;10.68;100.00
18988;BME280;5494;51.796;10.952;2024-02-15T02:05:16;99084.91;;;10.74;100.00
18988;BME280;5494;51.796;10.952;2024-02-15T02:07:44;99083.88;;;10.78;100.00
18988;BME280;5494;51.796;10.952;2024-02-15T02:10:12;99084.56;;;10.64;100.00
18988;BME280;5494;51.796;10.952;2024-02-15T02:12:41;99086.88;;;10.51;100.00
18988;BME280;5494;51.796;10.952;2024-02-15T02:15:10;99093.09;;;10.49;100.00
18988;BME280;5494;51.796;10.952;2024-02-15T02:17:39;99080.34;;;10.61;100.00
18988;BME280;5494;51.796;10.952;2024-02-15T02:20:08;99078.88;;;10.56;100.00
18988;BME280;5494;51.796;10.952;2024-02-15T02:22:44;99088.88;;;10.46;100.00
18988;BME280;5494;51.796;10.952;2024-02-15T02:25:16;99082.84;;;10.46;100.00
18988;BME280;5494;51.796;10.952;2024-02-15T02:27:47;99081.44;;;10.39;100.00
18988;BME280;5494;51.796;10.952;2024-02-15T02:30:16;99083.50;;;10.32;100.00
18988;BME280;5494;51.796;10.952;2024-02-15T02:32:49;99084.88;;;10.39;100.00
18988;BME280;5494;51.796;10.952;2024-02-15T02:35:17;99083.63;;;10.48;100.00
18988;BME280;5494;51.796;10.952;2024-02-15T02:37:47;99078.41;;;10.48;100.00
18988;BME280;5494;51.796;10.952;2024-02-15T02:40:16;99084.38;;;10.50;100.00
18988;BME280;5494;51.796;10.952;2024-02-15T02:42:49;99079.09;;;10.51;100.00
18988;BME280;5494;51.796;10.952;2024-02-15T02:45:18;99075.38;;;10.74;100.00
18988;BME280;5494;51.796;10.952;2024-02-15T02:47:49;99075.06;;;10.63;100.00
18988;BME280;5494;51.796;10.952;2024-02-15T02:50:22;99073.44;;;10.60;100.00
18988;BME280;5494;51.796;10.952;2024-02-15T02:52:50;99081.97;;;10.64;100.00
18988;BME280;5494;51.796;10.952;2024-02-15T02:55:20;99082.25;;;10.75;100.00
18988;BME280;5494;51.796;10.952;2024-02-15T02:57:48;99079.13;;;10.69;100.00
18988;BME280;5494;51.796;10.952;2024-02-15T03:00:17;99085.00;;;10.72;100.00
18988;BME280;5494;51.796;10.952;2024-02-15T03:02:47;99073.66;;;11.07;100.00
18988;BME280;5494;51.796;10.952;2024-02-15T03:05:15;99079.25;;;11.00;100.00
18988;BME280;5494;51.796;10.952;2024-02-15T03:07:44;99088.22;;;10.94;100.00
18988;BME280;5494;51.796;10.952;2024-02-15T03:10:12;99086.75;;;10.89;100.00
18988;BME280;5494;51.796;10.952;2024-02-15T03:12:43;99086.59;;;11.09;100.00
18988;BME280;5494;51.796;10.952;2024-02-15T03:15:16;99083.06;;;11.10;100.00
18988;BME280;5494;51.796;10.952;2024-02-15T03:17:47;99083.75;;;11.14;100.00
18988;BME280;5494;51.796;10.952;2024-02-15T03:20:17;99078.97;;;11.39;100.00
18988;BME280;5494;51.796;10.952;2024-02-15T03:22:54;99074.34;;;11.11;100.00
18988;BME280;5494;51.796;10.952;2024-02-15T03:25:23;99081.00;;;10.99;100.00
18988;BME280;5494;51.796;10.952;2024-02-15T03:27:54;99073.44;;;10.95;100.00
18988;BME280;5494;51.796;10.952;2024-02-15T03:30:25;99070.59;;;10.99;100.00
18988;BME280;5494;51.796;10.952;2024-02-15T03:33:00;99067.56;;;10.91;100.00
18988;BME280;5494;51.796;10.952;2024-02-15T03:35:30;99066.50;;;10.95;100.00
18988;BME280;5494;51.796;10.952;2024-02-15T03:37:58;99055.94;;;10.98;100.00
18988;BME280;5494;51.796;10.952;2024-02-15T03:40:28;99044.31;;;11.05;100.00
18988;BME280;5494;51.796;10.952;2024-02-15T03:42:59;99047.19;;;10.99;100.00
18988;BME280;5494;51.796;10.952;2024-02-15T03:45:27;99046.13;;;11.03;100.00
18988;BME280;5494;51.796;10.952;2024-02-15T03:47:55;99053.03;;;11.04;100.00
18988;BME280;5494;51.796;10.952;2024-02-15T03:50:24;99053.94;;;11.03;100.00
18988;BME280;5494;51.796;10.952;2024-02-15T03:52:52;99063.94;;;11.11;100.00
18988;BME280;5494;51.796;10.952;2024-02-15T03:55:20;99070.91;;;11.11;100.00
18988;BME280;5494;51.796;10.952;2024-02-15T03:57:49;99072.28;;;11.18;100.00
18988;BME280;5494;51.796;10.952;2024-02-15T04:00:19;99076.72;;;11.16;100.00
18988;BME280;5494;51.796;10.952;2024-02-15T04:02:49;99075.72;;;11.18;100.00
18988;BME280;5494;51.796;10.952;2024-02-15T04:05:18;99083.53;;;11.18;100.00
18988;BME280;5494;51.796;10.952;2024-02-15T04:07:49;99081.91;;;11.16;100.00
18988;BME280;5494;51.796;10.952;2024-02-15T04:10:17;99064.72;;;11.13;100.00
18988;BME280;5494;51.796;10.952;2024-02-15T04:12:45;99057.50;;;11.18;100.00
18988;BME280;5494;51.796;10.952;2024-02-15T04:15:14;99055.22;;;11.12;100.00
18988;BME280;5494;51.796;10.952;2024-02-15T04:17:46;99057.59;;;11.17;100.00
18988;BME280;5494;51.796;10.952;2024-02-15T04:20:14;99055.84;;;11.17;100.00
18988;BME280;5494;51.796;10.952;2024-02-15T04:22:47;99059.28;;;11.18;100.00
18988;BME280;5494;51.796;10.952;2024-02-15T04:25:17;99071.59;;;11.14;100.00
18988;BME280;5494;51.796;10.952;2024-02-15T04:27:48;99083.06;;;11.10;100.00
18988;BME280;5494;51.796;10.952;2024-02-15T04:30:16;99097.72;;;11.13;100.00
18988;BME280;5494;51.796;10.952;2024-02-15T04:32:46;99098.13;;;11.21;100.00
18988;BME280;5494;51.796;10.952;2024-02-15T04:35:14;99104.28;;;11.20;100.00
18988;BME280;5494;51.796;10.952;2024-02-15T04:37:42;99108.00;;;11.14;100.00
18988;BME280;5494;51.796;10.952;2024-02-15T04:40:13;99108.13;;;11.13;100.00
18988;BME280;5494;51.796;10.952;2024-02-15T04:42:41;99103.03;;;11.10;100.00
18988;BME280;5494;51.796;10.952;2024-02-15T04:45:12;99104.19;;;11.21;100.00
18988;BME280;5494;51.796;10.952;2024-02-15T04:47:42;99113.03;;;11.34;100.00
18988;BME280;5494;51.796;10.952;2024-02-15T04:50:17;99110.34;;;11.36;100.00
18988;BME280;5494;51.796;10.952;2024-02-15T04:52:46;99108.41;;;11.24;100.00
18988;BME280;5494;51.796;10.952;2024-02-15T04:55:15;99103.25;;;11.22;100.00
18988;BME280;5494;51.796;10.952;2024-02-15T04:57:44;99109.88;;;11.12;100.00
18988;BME280;5494;51.796;10.952;2024-02-15T05:00:15;99106.75;;;11.05;100.00
18988;BME280;5494;51.796;10.952;2024-02-15T05:02:47;99089.97;;;11.11;100.00
18988;BME280;5494;51.796;10.952;2024-02-15T05:05:18;99087.13;;;11.16;100.00
18988;BME280;5494;51.796;10.952;2024-02-15T05:07:47;99080.41;;;11.12;100.00
18988;BME280;5494;51.796;10.952;2024-02-15T05:10:16;99078.72;;;11.11;100.00
18988;BME280;5494;51.796;10.952;2024-02-15T05:12:44;99074.88;;;11.18;100.00
18988;BME280;5494;51.796;10.952;2024-02-15T05:15:15;99076.03;;;11.12;100.00
18988;BME280;5494;51.796;10.952;2024-02-15T05:17:46;99071.38;;;11.19;100.00
18988;BME280;5494;51.796;10.952;2024-02-15T05:20:15;99068.38;;;11.09;100.00
18988;BME280;5494;51.796;10.952;2024-02-15T05:22:44;99068.63;;;11.04;100.00
18988;BME280;5494;51.796;10.952;2024-02-15T05:25:17;99066.63;;;11.10;100.00
18988;BME280;5494;51.796;10.952;2024-02-15T05:27:50;99057.91;;;11.11;100.00
18988;BME280;5494;51.796;10.952;2024-02-15T05:30:20;99058.06;;;11.07;100.00
18988;BME280;5494;51.796;10.952;2024-02-15T05:32:50;99058.75;;;11.11;100.00
18988;BME280;5494;51.796;10.952;2024-02-15T05:35:21;99063.88;;;11.13;100.00
18988;BME280;5494;51.796;10.952;2024-02-15T05:37:50;99066.47;;;11.13;100.00
18988;BME280;5494;51.796;10.952;2024-02-15T05:40:20;99064.72;;;11.13;100.00
18988;BME280;5494;51.796;10.952;2024-02-15T05:42:48;99061.69;;;11.21;100.00
18988;BME280;5494;51.796;10.952;2024-02-15T05:45:30;99066.63;;;11.27;100.00
18988;BME280;5494;51.796;10.952;2024-02-15T05:48:05;99068.19;;;11.29;100.00
18988;BME280;5494;51.796;10.952;2024-02-15T05:50:35;99064.31;;;11.21;100.00
18988;BME280;5494;51.796;10.952;2024-02-15T05:53:05;99073.66;;;11.25;100.00
18988;BME280;5494;51.796;10.952;2024-02-15T05:55:34;99078.00;;;11.24;100.00
18988;BME280;5494;51.796;10.952;2024-02-15T05:58:04;99063.25;;;11.25;100.00
18988;BME280;5494;51.796;10.952;2024-02-15T06:00:33;99069.34;;;11.24;100.00
18988;BME280;5494;51.796;10.952;2024-02-15T06:03:02;99074.41;;;11.27;100.00
18988;BME280;5494;51.796;10.952;2024-02-15T06:05:30;99074.63;;;11.22;100.00
18988;BME280;5494;51.796;10.952;2024-02-15T06:07:59;99089.19;;;11.26;100.00
18988;BME280;5494;51.796;10.952;2024-02-15T06:10:28;99093.44;;;11.27;100.00
18988;BME280;5494;51.796;10.952;2024-02-15T06:12:57;99086.66;;;11.25;100.00
18988;BME280;5494;51.796;10.952;2024-02-15T06:15:26;99084.06;;;11.25;100.00
18988;BME280;5494;51.796;10.952;2024-02-15T06:17:54;99084.81;;;11.27;100.00
18988;BME280;5494;51.796;10.952;2024-02-15T06:20:22;99082.66;;;11.35;100.00
18988;BME280;5494;51.796;10.952;2024-02-15T06:22:51;99078.53;;;11.31;100.00
18988;BME280;5494;51.796;10.952;2024-02-15T06:25:19;99081.13;;;11.31;100.00
18988;BME280;5494;51.796;10.952;2024-02-15T06:27:50;99085.25;;;11.35;100.00
18988;BME280;5494;51.796;10.952;2024-02-15T06:30:25;99090.56;;;11.33;100.00
18988;BME280;5494;51.796;10.952;2024-02-15T06:33:11;99094.22;;;11.29;100.00
18988;BME280;5494;51.796;10.952;2024-02-15T06:36:06;99099.66;;;11.25;100.00
18988;BME280;5494;51.796;10.952;2024-02-15T06:38:52;99108.31;;;11.25;100.00
18988;BME280;5494;51.796;10.952;2024-02-15T06:41:38;99109.00;;;11.29;100.00
18988;BME280;5494;51.796;10.952;2024-02-15T06:44:09;99119.25;;;11.32;100.00
18988;BME280;5494;51.796;10.952;2024-02-15T06:46:37;99124.59;;;11.29;100.00
18988;BME280;5494;51.796;10.952;2024-02-15T06:49:06;99118.94;;;11.38;100.00
18988;BME280;5494;51.796;10.952;2024-02-15T06:51:34;99119.84;;;11.37;100.00
18988;BME280;5494;51.796;10.952;2024-02-15T06:54:03;99116.16;;;11.41;100.00
18988;BME280;5494;51.796;10.952;2024-02-15T06:56:35;99119.97;;;11.51;100.00
18988;BME280;5494;51.796;10.952;2024-02-15T06:59:03;99118.28;;;11.50;100.00
18988;BME280;5494;51.796;10.952;2024-02-15T07:01:33;99137.72;;;11.60;100.00
18988;BME280;5494;51.796;10.952;2024-02-15T07:04:01;99136.53;;;11.83;100.00
18988;BME280;5494;51.796;10.952;2024-02-15T07:06:30;99140.59;;;11.89;100.00
18988;BME280;5494;51.796;10.952;2024-02-15T07:08:58;99147.78;;;11.83;100.00
18988;BME280;5494;51.796;10.952;2024-02-15T07:11:27;99139.25;;;11.81;100.00
18988;BME280;5494;51.796;10.952;2024-02-15T07:13:55;99140.75;;;11.86;100.00
18988;BME280;5494;51.796;10.952;2024-02-15T07:16:23;99140.59;;;11.89;100.00
18988;BME280;5494;51.796;10.952;2024-02-15T07:18:53;99145.81;;;11.89;100.00
18988;BME280;5494;51.796;10.952;2024-02-15T07:21:21;99140.59;;;11.89;100.00
18988;BME280;5494;51.796;10.952;2024-02-15T07:23:53;99141.25;;;11.92;100.00
18988;BME280;5494;51.796;10.952;2024-02-15T07:26:23;99137.31;;;12.01;100.00
18988;BME280;5494;51.796;10.952;2024-02-15T07:28:52;99139.25;;;12.13;100.00
18988;BME280;5494;51.796;10.952;2024-02-15T07:31:21;99143.47;;;12.15;100.00
18988;BME280;5494;51.796;10.952;2024-02-15T07:33:50;99135.25;;;12.23;100.00
18988;BME280;5494;51.796;10.952;2024-02-15T07:36:23;99127.81;;;12.31;100.00
18988;BME280;5494;51.796;10.952;2024-02-15T07:38:52;99124.63;;;12.57;100.00
18988;BME280;5494;51.796;10.952;2024-02-15T07:41:21;99122.22;;;12.69;100.00
18988;BME280;5494;51.796;10.952;2024-02-15T07:43:50;99127.91;;;12.91;100.00
18988;BME280;5494;51.796;10.952;2024-02-15T07:46:19;99129.53;;;13.08;100.00
18988;BME280;5494;51.796;10.952;2024-02-15T07:48:48;99129.50;;;13.23;100.00
18988;BME280;5494;51.796;10.952;2024-02-15T07:51:19;99116.31;;;13.40;100.00
18988;BME280;5494;51.796;10.952;2024-02-15T07:53:49;99117.03;;;13.43;100.00
18988;BME280;5494;51.796;10.952;2024-02-15T07:56:17;99123.09;;;13.57;100.00
18988;BME280;5494;51.796;10.952;2024-02-15T07:58:49;99122.47;;;13.54;100.00
18988;BME280;5494;51.796;10.952;2024-02-15T08:01:20;99127.31;;;13.60;100.00
18988;BME280;5494;51.796;10.952;2024-02-15T08:03:51;99134.38;;;13.58;100.00
18988;BME280;5494;51.796;10.952;2024-02-15T08:06:22;99143.72;;;13.48;100.00
18988;BME280;5494;51.796;10.952;2024-02-15T08:08:54;99129.91;;;13.46;100.00
18988;BME280;5494;51.796;10.952;2024-02-15T08:11:22;99124.69;;;13.60;100.00
18988;BME280;5494;51.796;10.952;2024-02-15T08:13:51;99126.53;;;13.44;100.00
18988;BME280;5494;51.796;10.952;2024-02-15T08:16:22;99129.53;;;13.66;100.00
18988;BME280;5494;51.796;10.952;2024-02-15T08:18:50;99130.69;;;13.76;100.00
18988;BME280;5494;51.796;10.952;2024-02-15T08:21:26;99125.91;;;13.40;100.00
18988;BME280;5494;51.796;10.952;2024-02-15T08:23:57;99135.13;;;13.31;100.00
18988;BME280;5494;51.796;10.952;2024-02-15T08:26:26;99134.22;;;13.47;100.00
18988;BME280;5494;51.796;10.952;2024-02-15T08:28:56;99142.78;;;13.34;100.00
18988;BME280;5494;51.796;10.952;2024-02-15T08:31:24;99146.78;;;13.40;100.00
18988;BME280;5494;51.796;10.952;2024-02-15T08:33:52;99139.63;;;13.58;100.00
18988;BME280;5494;51.796;10.952;2024-02-15T08:36:20;99136.72;;;13.62;100.00
18988;BME280;5494;51.796;10.952;2024-02-15T08:38:49;99123.56;;;13.50;100.00
18988;BME280;5494;51.796;10.952;2024-02-15T08:41:19;99123.31;;;13.54;100.00
18988;BME280;5494;51.796;10.952;2024-02-15T08:43:50;99114.63;;;13.68;100.00
18988;BME280;5494;51.796;10.952;2024-02-15T08:46:18;99126.00;;;13.81;100.00
18988;BME280;5494;51.796;10.952;2024-02-15T08:48:46;99122.16;;;13.87;100.00
18988;BME280;5494;51.796;10.952;2024-02-15T08:51:14;99129.16;;;13.86;100.00
18988;BME280;5494;51.796;10.952;2024-02-15T08:53:43;99125.53;;;13.89;100.00
18988;BME280;5494;51.796;10.952;2024-02-15T08:56:12;99120.50;;;13.71;100.00
18988;BME280;5494;51.796;10.952;2024-02-15T08:58:42;99126.75;;;13.69;100.00
18988;BME280;5494;51.796;10.952;2024-02-15T09:01:11;99111.72;;;13.58;100.00
18988;BME280;5494;51.796;10.952;2024-02-15T09:03:40;99120.56;;;13.56;100.00
18988;BME280;5494;51.796;10.952;2024-02-15T09:06:12;99129.53;;;13.52;100.00
18988;BME280;5494;51.796;10.952;2024-02-15T09:08:41;99131.00;;;13.41;100.00
18988;BME280;5494;51.796;10.952;2024-02-15T09:11:09;99128.63;;;13.53;100.00
18988;BME280;5494;51.796;10.952;2024-02-15T09:13:39;99122.00;;;13.61;100.00
18988;BME280;5494;51.796;10.952;2024-02-15T09:16:08;99129.09;;;13.59;100.00
18988;BME280;5494;51.796;10.952;2024-02-15T09:18:38;99126.47;;;13.59;100.00
18988;BME280;5494;51.796;10.952;2024-02-15T09:21:12;99140.53;;;13.57;100.00
18988;BME280;5494;51.796;10.952;2024-02-15T09:23:41;99144.44;;;13.50;100.00
18988;BME280;5494;51.796;10.952;2024-02-15T09:26:09;99159.56;;;13.45;100.00
18988;BME280;5494;51.796;10.952;2024-02-15T09:28:39;99164.97;;;13.56;100.00
18988;BME280;5494;51.796;10.952;2024-02-15T09:31:09;99162.03;;;13.76;100.00
18988;BME280;5494;51.796;10.952;2024-02-15T09:33:38;99149.91;;;13.89;100.00
18988;BME280;5494;51.796;10.952;2024-02-15T09:36:07;99153.88;;;14.09;100.00
18988;BME280;5494;51.796;10.952;2024-02-15T09:38:35;99146.13;;;14.07;100.00
18988;BME280;5494;51.796;10.952;2024-02-15T09:41:04;99143.59;;;14.20;100.00
18988;BME280;5494;51.796;10.952;2024-02-15T09:43:35;99145.72;;;14.42;100.00
18988;BME280;5494;51.796;10.952;2024-02-15T09:46:03;99142.97;;;14.57;100.00
18988;BME280;5494;51.796;10.952;2024-02-15T09:48:34;99138.38;;;14.61;100.00
18988;BME280;5494;51.796;10.952;2024-02-15T09:51:06;99143.38;;;14.78;100.00
18988;BME280;5494;51.796;10.952;2024-02-15T09:53:35;99138.06;;;14.92;100.00
18988;BME280;5494;51.796;10.952;2024-02-15T09:56:04;99149.31;;;15.07;100.00
18988;BME280;5494;51.796;10.952;2024-02-15T09:58:34;99142.50;;;15.30;100.00
18988;BME280;5494;51.796;10.952;2024-02-15T10:01:04;99132.25;;;15.40;100.00
18988;BME280;5494;51.796;10.952;2024-02-15T10:03:38;99128.81;;;15.64;100.00
18988;BME280;5494;51.796;10.952;2024-02-15T10:06:07;99133.63;;;15.32;100.00
18988;BME280;5494;51.796;10.952;2024-02-15T10:08:37;99137.03;;;15.08;100.00
18988;BME280;5494;51.796;10.952;2024-02-15T10:11:07;99131.41;;;15.26;100.00
18988;BME280;5494;51.796;10.952;2024-02-15T10:13:36;99121.34;;;15.20;100.00
18988;BME280;5494;51.796;10.952;2024-02-15T10:16:15;99116.97;;;15.46;100.00
18988;BME280;5494;51.796;10.952;2024-02-15T10:18:45;99120.00;;;15.40;100.00
18988;BME280;5494;51.796;10.952;2024-02-15T10:21:32;99116.78;;;15.74;100.00
18988;BME280;5494;51.796;10.952;2024-02-15T10:24:06;99113.91;;;15.77;100.00
18988;BME280;5494;51.796;10.952;2024-02-15T10:26:36;99116.53;;;15.77;100.00
18988;BME280;5494;51.796;10.952;2024-02-15T10:29:09;99115.50;;;15.80;100.00
18988;BME280;5494;51.796;10.952;2024-02-15T10:31:39;99116.16;;;15.58;100.00
18988;BME280;5494;51.796;10.952;2024-02-15T10:34:14;99119.50;;;15.60;100.00
18988;BME280;5494;51.796;10.952;2024-02-15T10:36:42;99116.31;;;15.43;100.00
18988;BME280;5494;51.796;10.952;2024-02-15T10:39:12;99111.50;;;15.11;100.00
18988;BME280;5494;51.796;10.952;2024-02-15T10:41:46;99107.28;;;15.09;100.00
18988;BME280;5494;51.796;10.952;2024-02-15T10:44:19;99120.78;;;15.03;100.00
18988;BME280;5494;51.796;10.952;2024-02-15T10:46:48;99117.75;;;15.09;100.00
18988;BME280;5494;51.796;10.952;2024-02-15T10:49:22;99113.25;;;14.98;100.00
18988;BME280;5494;51.796;10.952;2024-02-15T10:51:55;99107.25;;;14.83;100.00
18988;BME280;5494;51.796;10.952;2024-02-15T10:54:40;99107.16;;;14.85;100.00
18988;BME280;5494;51.796;10.952;2024-02-15T10:57:10;99108.66;;;14.62;100.00
18988;BME280;5494;51.796;10.952;2024-02-15T10:59:52;99103.25;;;14.78;100.00
18988;BME280;5494;51.796;10.952;2024-02-15T11:02:27;99108.13;;;14.96;100.00
18988;BME280;5494;51.796;10.952;2024-02-15T11:05:03;99113.59;;;15.06;100.00
18988;BME280;5494;51.796;10.952;2024-02-15T11:07:37;99114.09;;;15.11;100.00
18988;BME280;5494;51.796;10.952;2024-02-15T11:10:08;99107.09;;;14.99;100.00
18988;BME280;5494;51.796;10.952;2024-02-15T11:12:37;99107.72;;;15.15;100.00
18988;BME280;5494;51.796;10.952;2024-02-15T11:15:09;99111.91;;;15.30;100.00
18988;BME280;5494;51.796;10.952;2024-02-15T11:17:47;99120.72;;;15.29;100.00
18988;BME280;5494;51.796;10.952;2024-02-15T11:20:49;99119.34;;;15.11;100.00
18988;BME280;5494;51.796;10.952;2024-02-15T11:23:25;99110.66;;;15.11;100.00
18988;BME280;5494;51.796;10.952;2024-02-15T11:26:04;99113.78;;;15.16;100.00
18988;BME280;5494;51.796;10.952;2024-02-15T11:28:43;99105.84;;;15.17;100.00
18988;BME280;5494;51.796;10.952;2024-02-15T11:31:54;99104.81;;;15.20;100.00
18988;BME280;5494;51.796;10.952;2024-02-15T11:34:42;99102.72;;;15.25;100.00
18988;BME280;5494;51.796;10.952;2024-02-15T11:40:06;99098.97;;;15.54;100.00
18988;BME280;5494;51.796;10.952;2024-02-15T11:42:37;99102.50;;;15.28;100.00
18988;BME280;5494;51.796;10.952;2024-02-15T11:45:07;99091.38;;;15.24;100.00
18988;BME280;5494;51.796;10.952;2024-02-15T11:47:38;99098.72;;;15.19;100.00
18988;BME280;5494;51.796;10.952;2024-02-15T11:50:10;99095.38;;;15.17;100.00
18988;BME280;5494;51.796;10.952;2024-02-15T11:52:41;99094.53;;;15.29;100.00
18988;BME280;5494;51.796;10.952;2024-02-15T11:55:12;99089.19;;;15.31;100.00
18988;BME280;5494;51.796;10.952;2024-02-15T11:57:40;99079.03;;;15.26;100.00
18988;BME280;5494;51.796;10.952;2024-02-15T12:00:22;99089.94;;;15.20;100.00
18988;BME280;5494;51.796;10.952;2024-02-15T12:03:09;99085.53;;;15.33;100.00
18988;BME280;5494;51.796;10.952;2024-02-15T12:05:55;99092.66;;;15.44;100.00
18988;BME280;5494;51.796;10.952;2024-02-15T12:08:44;99088.03;;;15.73;100.00
18988;BME280;5494;51.796;10.952;2024-02-15T12:11:32;99085.78;;;15.56;100.00
18988;BME280;5494;51.796;10.952;2024-02-15T12:14:18;99081.03;;;15.73;100.00
18988;BME280;5494;51.796;10.952;2024-02-15T12:17:06;99089.00;;;15.59;100.00
18988;BME280;5494;51.796;10.952;2024-02-15T12:19:53;99080.19;;;15.48;100.00
18988;BME280;5494;51.796;10.952;2024-02-15T12:22:26;99074.81;;;15.36;100.00
18988;BME280;5494;51.796;10.952;2024-02-15T12:24:57;99083.63;;;15.35;100.00
18988;BME280;5494;51.796;10.952;2024-02-15T12:27:29;99078.09;;;15.27;100.00
18988;BME280;5494;51.796;10.952;2024-02-15T12:29:57;99070.22;;;15.02;100.00
18988;BME280;5494;51.796;10.952;2024-02-15T12:32:27;99080.91;;;15.12;100.00
18988;BME280;5494;51.796;10.952;2024-02-15T12:35:11;99071.69;;;15.19;100.00
18988;BME280;5494;51.796;10.952;2024-02-15T12:37:47;99063.50;;;15.23;100.00
18988;BME280;5494;51.796;10.952;2024-02-15T12:40:17;99064.69;;;15.07;100.00
18988;BME280;5494;51.796;10.952;2024-02-15T12:42:47;99059.75;;;15.15;100.00
18988;BME280;5494;51.796;10.952;2024-02-15T12:45:17;99052.81;;;15.01;100.00
18988;BME280;5494;51.796;10.952;2024-02-15T12:47:50;99059.69;;;14.64;100.00
18988;BME280;5494;51.796;10.952;2024-02-15T12:50:22;99056.06;;;14.79;100.00
18988;BME280;5494;51.796;10.952;2024-02-15T12:52:52;99045.84;;;14.62;100.00
18988;BME280;5494;51.796;10.952;2024-02-15T12:55:22;99050.19;;;14.76;100.00
18988;BME280;5494;51.796;10.952;2024-02-15T12:57:54;99044.63;;;14.80;100.00
18988;BME280;5494;51.796;10.952;2024-02-15T13:00:27;99034.03;;;14.69;100.00
18988;BME280;5494;51.796;10.952;2024-02-15T13:02:57;99035.84;;;14.94;100.00
18988;BME280;5494;51.796;10.952;2024-02-15T13:05:26;99013.97;;;14.95;100.00
18988;BME280;5494;51.796;10.952;2024-02-15T13:07:56;99022.47;;;14.86;100.00
18988;BME280;5494;51.796;10.952;2024-02-15T13:10:25;99020.78;;;14.85;100.00
18988;BME280;5494;51.796;10.952;2024-02-15T13:12:58;99020.03;;;14.95;100.00